South Shore, South Dakota
Current Conditions -  °F | °C
As of 12:53 AM on Friday 31 Oct 2014 (Local Time) from KATY Reporting Station
Clear Clear  
Wind Chill: 12°   Ceiling: Unl
Heat Index: 23°   Visibility: 10mi
Dew Point: 19°   Wind: 10mph
Humidity: 85%   Direction: 360°N
Pressure: 30.5"   Gusts: NA
Location:  45.11°N, 96.93°W
Report Text: KATY 310553Z AUTO 36009KT 10SM CLR M05/M07 A3050 RMK AO2 SLP351 T10501072 10006 21050 400671050 51015
Loading
Personal Weather Stations






























Interactive Weather Map
Tropical Storm Tracking
New forecast layout! Learn more

10-Day Weather Forecast

Advertisements
Track Severe Weather on mobile